ETSL

Details ICAO ETSL
Name LECHFELD
Region Germany - Military
Timezone Europe/Berlin (UTC+1.0)
Plans Departing 3
Arriving 3
Stats Elevation 1,822 ft / 555 m (AMSL)
Location 48.185499° 10.861168°
Runways 1
Magnetic Variation 2.942° E
Sunrise 2018-01-22 06:57:49 UTC / 2018-01-22 07:57:49 Local
Sunset 2018-01-22 16:00:36 UTC / 2018-01-22 17:00:36 Local
Advertisement - Login to hide

Runways

ID Width Length Bearing (true) Bearing (mag) Surface Threshold Offset Overrun Length
03 98 ft / 30 m 8,008 ft / 2,441 m 28.92° 25.98° Concrete 0 ft / 0 m 961 ft / 293 m
21 98 ft / 30 m 8,008 ft / 2,441 m 208.93° 205.99° Concrete 0 ft / 0 m 945 ft / 288 m

Map

Weather


0- 5 10 15 20 25 30 35+ Temperature / ° C

Clouds and Precipitation
Forecast for 2018-01-22 06:00 UTC. Updated an hour ago

Ground ~20,000 ft ~40,000 ft Winds

METAR

ETSL 220120Z 12005KT 1500 SN SCT007 OVC015 M01/M02 Q1013 AMB

TAF

Not found

Frequencies

Tower 122.10 MHz TWR
Approach 123.30 MHz RADAR
Tower 135.15 MHz TWR
Approach 129.02 MHz RADAR
Warning: Do not use this data for real-world aviation or navigation. No guarantee of current accuracy is given.